Flugplatz Niederrhein

Bericht für EDLV

vom 20.10. um 19:50 UTC

Wind 5 kt aus 40°

Sichtweite 10 km oder mehr

aufgebrochene Bewölkung in 800 ft

Temperatur 11.0°C

Taupunkt 10.0°C

Luftfeuchtigkeit 94%

Luftdruck 1009 hPa

EDLV 201950Z 04005KT 010V090 9999 BKN008 11/10 Q1009

Prognose für EDLV

vom 20.10. um 00:00 UTC

Zwischen 00:00 UTC und 00:00 UTC

Wind 5 kt aus 20°

Sichtweite 10 km oder mehr

aufgebrochene Bewölkung in 3000 ft


Zwischen 00:00 UTC und 00:00 UTC zeitweise

Regen


Zwischen 00:00 und 00:00 UTC übergehend zu

Wind 5 kt aus 20°

Sichtweite 3000 m

schwacher Regen

aufgebrochene Bewölkung in 800 ft


Am 21.10. zwischen 00:00 UTC und 00:00 UTC zeitweise

Sichtweite 1200 m

schwacher Regen

schwacher Sprühregen

feuchter Dunst

aufgebrochene Bewölkung in 300 ft


Am 21.10. zwischen 00:00 und 00:00 UTC übergehend zu

Wind 7 kt aus 180°

Sichtweite 10 km oder mehr

schwacher Regen

aufgebrochene Bewölkung in 3000 ft

TAF EDLV 201700Z 2018/2118 02005KT 9999 BKN030 BECMG 2019/2022 3000 -RA BKN008 TEMPO 2019/2024 RA TEMPO 2100/2108 1200 -RADZ BR BKN003 BECMG 2107/2110 18007KT 9999 BKN030
Impressum